sensor_id;sensor_type;location;lat;lon;timestamp;P1;durP1;ratioP1;P2;durP2;ratioP2
53391;SDS011;41667;51.922;8.850;2023-07-08T00:00:51;6.72;;;2.08;;
53391;SDS011;41667;51.922;8.850;2023-07-08T00:03:16;1.92;;;1.65;;
53391;SDS011;41667;51.922;8.850;2023-07-08T00:05:42;2.00;;;1.60;;
53391;SDS011;41667;51.922;8.850;2023-07-08T00:08:08;3.17;;;1.70;;
53391;SDS011;41667;51.922;8.850;2023-07-08T00:10:36;4.47;;;2.53;;
53391;SDS011;41667;51.922;8.850;2023-07-08T00:13:01;5.97;;;2.43;;
53391;SDS011;41667;51.922;8.850;2023-07-08T00:15:27;2.60;;;2.33;;
53391;SDS011;41667;51.922;8.850;2023-07-08T00:17:53;3.25;;;2.40;;
53391;SDS011;41667;51.922;8.850;2023-07-08T00:20:37;4.15;;;2.30;;
53391;SDS011;41667;51.922;8.850;2023-07-08T00:23:03;3.63;;;2.00;;
53391;SDS011;41667;51.922;8.850;2023-07-08T00:25:28;2.28;;;1.92;;
53391;SDS011;41667;51.922;8.850;2023-07-08T00:27:54;3.28;;;2.33;;
53391;SDS011;41667;51.922;8.850;2023-07-08T00:32:44;4.13;;;1.92;;
53391;SDS011;41667;51.922;8.850;2023-07-08T00:35:09;2.30;;;2.10;;
53391;SDS011;41667;51.922;8.850;2023-07-08T00:37:34;2.50;;;2.20;;
53391;SDS011;41667;51.922;8.850;2023-07-08T00:40:00;6.90;;;2.20;;
53391;SDS011;41667;51.922;8.850;2023-07-08T00:42:25;3.08;;;2.40;;
53391;SDS011;41667;51.922;8.850;2023-07-08T00:44:50;2.30;;;2.10;;
53391;SDS011;41667;51.922;8.850;2023-07-08T00:47:16;3.65;;;2.00;;
53391;SDS011;41667;51.922;8.850;2023-07-08T00:49:56;9.45;;;2.55;;
53391;SDS011;41667;51.922;8.850;2023-07-08T00:54:51;2.13;;;1.92;;
53391;SDS011;41667;51.922;8.850;2023-07-08T00:57:16;2.28;;;2.08;;
53391;SDS011;41667;51.922;8.850;2023-07-08T00:59:43;4.18;;;1.85;;
53391;SDS011;41667;51.922;8.850;2023-07-08T01:02:09;1.92;;;1.80;;
53391;SDS011;41667;51.922;8.850;2023-07-08T01:04:43;7.90;;;1.98;;
53391;SDS011;41667;51.922;8.850;2023-07-08T01:07:12;3.40;;;2.38;;
53391;SDS011;41667;51.922;8.850;2023-07-08T01:09:38;2.28;;;1.98;;
53391;SDS011;41667;51.922;8.850;2023-07-08T01:12:05;4.35;;;1.83;;
53391;SDS011;41667;51.922;8.850;2023-07-08T01:14:32;2.90;;;2.30;;
53391;SDS011;41667;51.922;8.850;2023-07-08T01:16:59;3.95;;;2.00;;
53391;SDS011;41667;51.922;8.850;2023-07-08T01:19:24;2.67;;;2.20;;
53391;SDS011;41667;51.922;8.850;2023-07-08T01:24:22;4.03;;;1.95;;
53391;SDS011;41667;51.922;8.850;2023-07-08T01:26:47;2.42;;;2.20;;
53391;SDS011;41667;51.922;8.850;2023-07-08T01:29:12;3.70;;;2.38;;
53391;SDS011;41667;51.922;8.850;2023-07-08T01:31:38;3.60;;;2.40;;
53391;SDS011;41667;51.922;8.850;2023-07-08T01:34:04;2.53;;;1.88;;
53391;SDS011;41667;51.922;8.850;2023-07-08T01:36:29;2.40;;;2.15;;
53391;SDS011;41667;51.922;8.850;2023-07-08T01:38:55;3.85;;;2.50;;
53391;SDS011;41667;51.922;8.850;2023-07-08T01:41:20;2.80;;;2.30;;
53391;SDS011;41667;51.922;8.850;2023-07-08T01:43:46;4.53;;;2.27;;
53391;SDS011;41667;51.922;8.850;2023-07-08T01:46:17;2.50;;;2.00;;
53391;SDS011;41667;51.922;8.850;2023-07-08T01:48:44;5.38;;;2.15;;
53391;SDS011;41667;51.922;8.850;2023-07-08T01:51:11;3.90;;;1.98;;
53391;SDS011;41667;51.922;8.850;2023-07-08T01:53:37;2.53;;;2.33;;
53391;SDS011;41667;51.922;8.850;2023-07-08T01:56:03;1.92;;;1.83;;
53391;SDS011;41667;51.922;8.850;2023-07-08T01:58:28;2.85;;;2.40;;
53391;SDS011;41667;51.922;8.850;2023-07-08T02:00:54;3.47;;;1.90;;
53391;SDS011;41667;51.922;8.850;2023-07-08T02:03:19;3.83;;;2.47;;
53391;SDS011;41667;51.922;8.850;2023-07-08T02:05:44;2.50;;;2.08;;
53391;SDS011;41667;51.922;8.850;2023-07-08T02:08:10;2.00;;;1.90;;
53391;SDS011;41667;51.922;8.850;2023-07-08T02:10:36;5.70;;;2.00;;
53391;SDS011;41667;51.922;8.850;2023-07-08T02:13:01;2.58;;;2.08;;
53391;SDS011;41667;51.922;8.850;2023-07-08T02:15:27;2.35;;;2.15;;
53391;SDS011;41667;51.922;8.850;2023-07-08T02:17:52;1.80;;;1.70;;
53391;SDS011;41667;51.922;8.850;2023-07-08T02:20:17;3.88;;;2.28;;
53391;SDS011;41667;51.922;8.850;2023-07-08T02:22:42;2.70;;;2.50;;
53391;SDS011;41667;51.922;8.850;2023-07-08T02:25:08;2.33;;;2.05;;
53391;SDS011;41667;51.922;8.850;2023-07-08T02:27:36;3.20;;;2.20;;
53391;SDS011;41667;51.922;8.850;2023-07-08T02:30:01;2.53;;;2.33;;
53391;SDS011;41667;51.922;8.850;2023-07-08T02:32:27;5.72;;;1.95;;
53391;SDS011;41667;51.922;8.850;2023-07-08T02:34:52;4.47;;;2.57;;
53391;SDS011;41667;51.922;8.850;2023-07-08T02:37:17;3.55;;;2.25;;
53391;SDS011;41667;51.922;8.850;2023-07-08T02:39:42;3.58;;;2.38;;
53391;SDS011;41667;51.922;8.850;2023-07-08T02:42:08;3.45;;;2.50;;
53391;SDS011;41667;51.922;8.850;2023-07-08T02:44:33;5.32;;;2.22;;
53391;SDS011;41667;51.922;8.850;2023-07-08T02:46:58;3.85;;;2.30;;
53391;SDS011;41667;51.922;8.850;2023-07-08T02:49:23;2.55;;;2.35;;
53391;SDS011;41667;51.922;8.850;2023-07-08T02:51:48;1.83;;;1.73;;
53391;SDS011;41667;51.922;8.850;2023-07-08T02:54:14;4.22;;;2.20;;
53391;SDS011;41667;51.922;8.850;2023-07-08T02:56:39;5.13;;;2.28;;
53391;SDS011;41667;51.922;8.850;2023-07-08T02:59:04;6.75;;;2.20;;
53391;SDS011;41667;51.922;8.850;2023-07-08T03:01:30;3.65;;;2.40;;
53391;SDS011;41667;51.922;8.850;2023-07-08T03:03:55;3.05;;;2.22;;
53391;SDS011;41667;51.922;8.850;2023-07-08T03:06:23;3.08;;;2.78;;
53391;SDS011;41667;51.922;8.850;2023-07-08T03:08:48;3.93;;;2.20;;
53391;SDS011;41667;51.922;8.850;2023-07-08T03:11:15;3.07;;;2.20;;
53391;SDS011;41667;51.922;8.850;2023-07-08T03:13:40;3.05;;;2.45;;
53391;SDS011;41667;51.922;8.850;2023-07-08T03:16:05;4.13;;;3.67;;
53391;SDS011;41667;51.922;8.850;2023-07-08T03:18:37;3.47;;;1.92;;
53391;SDS011;41667;51.922;8.850;2023-07-08T03:21:03;2.33;;;2.15;;
53391;SDS011;41667;51.922;8.850;2023-07-08T03:23:29;2.05;;;1.85;;
53391;SDS011;41667;51.922;8.850;2023-07-08T03:25:54;3.15;;;2.42;;
53391;SDS011;41667;51.922;8.850;2023-07-08T03:28:19;1.92;;;1.83;;
53391;SDS011;41667;51.922;8.850;2023-07-08T03:30:44;2.57;;;2.37;;
53391;SDS011;41667;51.922;8.850;2023-07-08T03:33:10;5.72;;;2.55;;
53391;SDS011;41667;51.922;8.850;2023-07-08T03:35:36;5.03;;;2.45;;
53391;SDS011;41667;51.922;8.850;2023-07-08T03:38:01;2.53;;;2.27;;
53391;SDS011;41667;51.922;8.850;2023-07-08T03:40:26;2.83;;;2.60;;
53391;SDS011;41667;51.922;8.850;2023-07-08T03:42:52;5.50;;;2.47;;
53391;SDS011;41667;51.922;8.850;2023-07-08T03:45:17;3.77;;;2.43;;
53391;SDS011;41667;51.922;8.850;2023-07-08T03:47:42;2.33;;;2.10;;
53391;SDS011;41667;51.922;8.850;2023-07-08T03:50:11;3.97;;;2.50;;
53391;SDS011;41667;51.922;8.850;2023-07-08T03:52:41;6.40;;;2.70;;
53391;SDS011;41667;51.922;8.850;2023-07-08T03:55:07;4.32;;;2.63;;
53391;SDS011;41667;51.922;8.850;2023-07-08T03:57:35;5.95;;;2.20;;
53391;SDS011;41667;51.922;8.850;2023-07-08T04:00:00;7.35;;;2.85;;
53391;SDS011;41667;51.922;8.850;2023-07-08T04:02:25;6.05;;;3.30;;
53391;SDS011;41667;51.922;8.850;2023-07-08T04:04:50;2.85;;;2.63;;
53391;SDS011;41667;51.922;8.850;2023-07-08T04:07:15;4.03;;;2.80;;
53391;SDS011;41667;51.922;8.850;2023-07-08T04:09:40;5.10;;;2.80;;
53391;SDS011;41667;51.922;8.850;2023-07-08T04:12:09;3.25;;;2.97;;
53391;SDS011;41667;51.922;8.850;2023-07-08T04:14:35;5.90;;;2.50;;
53391;SDS011;41667;51.922;8.850;2023-07-08T04:17:00;4.65;;;3.05;;
53391;SDS011;41667;51.922;8.850;2023-07-08T04:19:25;3.53;;;2.28;;
53391;SDS011;41667;51.922;8.850;2023-07-08T04:21:52;4.18;;;3.00;;
53391;SDS011;41667;51.922;8.850;2023-07-08T04:24:17;4.93;;;2.85;;
53391;SDS011;41667;51.922;8.850;2023-07-08T04:26:43;5.17;;;3.00;;
53391;SDS011;41667;51.922;8.850;2023-07-08T04:29:18;3.38;;;2.97;;
53391;SDS011;41667;51.922;8.850;2023-07-08T04:31:44;3.17;;;2.53;;
53391;SDS011;41667;51.922;8.850;2023-07-08T04:34:09;3.33;;;2.95;;
53391;SDS011;41667;51.922;8.850;2023-07-08T04:36:35;4.35;;;3.25;;
53391;SDS011;41667;51.922;8.850;2023-07-08T04:39:01;3.70;;;3.40;;
53391;SDS011;41667;51.922;8.850;2023-07-08T04:41:26;4.70;;;3.30;;
53391;SDS011;41667;51.922;8.850;2023-07-08T04:43:52;6.15;;;3.25;;
53391;SDS011;41667;51.922;8.850;2023-07-08T04:46:37;5.57;;;3.30;;
53391;SDS011;41667;51.922;8.850;2023-07-08T04:49:04;5.43;;;3.55;;
53391;SDS011;41667;51.922;8.850;2023-07-08T04:51:29;4.30;;;3.63;;
53391;SDS011;41667;51.922;8.850;2023-07-08T04:53:55;5.30;;;3.73;;
53391;SDS011;41667;51.922;8.850;2023-07-08T04:56:20;4.63;;;3.90;;
53391;SDS011;41667;51.922;8.850;2023-07-08T04:58:45;5.53;;;3.90;;
53391;SDS011;41667;51.922;8.850;2023-07-08T05:01:10;5.03;;;3.72;;
53391;SDS011;41667;51.922;8.850;2023-07-08T05:03:36;4.75;;;3.85;;
53391;SDS011;41667;51.922;8.850;2023-07-08T05:06:01;4.45;;;3.65;;
53391;SDS011;41667;51.922;8.850;2023-07-08T05:08:26;6.30;;;3.42;;
53391;SDS011;41667;51.922;8.850;2023-07-08T05:10:51;5.90;;;3.67;;
53391;SDS011;41667;51.922;8.850;2023-07-08T05:13:16;6.82;;;3.83;;
53391;SDS011;41667;51.922;8.850;2023-07-08T05:15:42;5.72;;;3.75;;
53391;SDS011;41667;51.922;8.850;2023-07-08T05:18:07;4.90;;;3.70;;
53391;SDS011;41667;51.922;8.850;2023-07-08T05:20:32;5.13;;;4.63;;
53391;SDS011;41667;51.922;8.850;2023-07-08T05:22:59;8.10;;;4.32;;
53391;SDS011;41667;51.922;8.850;2023-07-08T05:25:24;7.47;;;4.30;;
53391;SDS011;41667;51.922;8.850;2023-07-08T05:27:49;5.80;;;4.32;;
53391;SDS011;41667;51.922;8.850;2023-07-08T05:30:16;7.15;;;3.80;;
53391;SDS011;41667;51.922;8.850;2023-07-08T05:32:41;4.47;;;4.10;;
53391;SDS011;41667;51.922;8.850;2023-07-08T05:35:07;6.97;;;4.60;;
53391;SDS011;41667;51.922;8.850;2023-07-08T05:37:32;4.85;;;4.38;;
53391;SDS011;41667;51.922;8.850;2023-07-08T05:39:57;7.60;;;3.92;;
53391;SDS011;41667;51.922;8.850;2023-07-08T05:42:25;4.60;;;3.90;;
53391;SDS011;41667;51.922;8.850;2023-07-08T05:44:50;4.68;;;3.95;;
53391;SDS011;41667;51.922;8.850;2023-07-08T05:47:16;7.75;;;3.67;;
53391;SDS011;41667;51.922;8.850;2023-07-08T05:49:42;3.92;;;3.53;;
53391;SDS011;41667;51.922;8.850;2023-07-08T05:52:07;4.22;;;3.05;;
53391;SDS011;41667;51.922;8.850;2023-07-08T05:54:36;6.15;;;3.50;;
53391;SDS011;41667;51.922;8.850;2023-07-08T05:57:01;5.22;;;2.55;;
53391;SDS011;41667;51.922;8.850;2023-07-08T05:59:26;3.80;;;2.85;;
53391;SDS011;41667;51.922;8.850;2023-07-08T06:01:52;3.28;;;2.85;;
53391;SDS011;41667;51.922;8.850;2023-07-08T06:04:17;4.07;;;2.90;;
53391;SDS011;41667;51.922;8.850;2023-07-08T06:06:42;3.83;;;2.75;;
53391;SDS011;41667;51.922;8.850;2023-07-08T06:09:07;4.75;;;3.08;;
53391;SDS011;41667;51.922;8.850;2023-07-08T06:11:32;2.83;;;2.35;;
53391;SDS011;41667;51.922;8.850;2023-07-08T06:13:57;4.70;;;2.37;;
53391;SDS011;41667;51.922;8.850;2023-07-08T06:16:23;3.00;;;2.40;;
53391;SDS011;41667;51.922;8.850;2023-07-08T06:18:48;4.77;;;2.77;;
53391;SDS011;41667;51.922;8.850;2023-07-08T06:21:13;2.85;;;2.60;;
53391;SDS011;41667;51.922;8.850;2023-07-08T06:23:38;3.33;;;2.30;;
53391;SDS011;41667;51.922;8.850;2023-07-08T06:26:03;4.53;;;2.35;;
53391;SDS011;41667;51.922;8.850;2023-07-08T06:28:28;6.80;;;2.75;;
53391;SDS011;41667;51.922;8.850;2023-07-08T06:30:53;4.63;;;2.47;;
53391;SDS011;41667;51.922;8.850;2023-07-08T06:33:19;2.53;;;2.30;;
53391;SDS011;41667;51.922;8.850;2023-07-08T06:35:44;2.08;;;1.90;;
53391;SDS011;41667;51.922;8.850;2023-07-08T06:38:10;2.70;;;2.20;;
53391;SDS011;41667;51.922;8.850;2023-07-08T06:40:35;1.70;;;1.60;;
53391;SDS011;41667;51.922;8.850;2023-07-08T06:43:02;2.30;;;2.10;;
53391;SDS011;41667;51.922;8.850;2023-07-08T06:45:27;2.72;;;2.42;;
53391;SDS011;41667;51.922;8.850;2023-07-08T06:47:52;4.57;;;2.03;;
53391;SDS011;41667;51.922;8.850;2023-07-08T06:50:17;3.72;;;2.10;;
53391;SDS011;41667;51.922;8.850;2023-07-08T06:52:42;2.53;;;2.33;;
53391;SDS011;41667;51.922;8.850;2023-07-08T06:55:08;6.37;;;2.70;;
53391;SDS011;41667;51.922;8.850;2023-07-08T06:57:34;4.22;;;2.10;;
53391;SDS011;41667;51.922;8.850;2023-07-08T06:59:59;2.08;;;1.80;;
53391;SDS011;41667;51.922;8.850;2023-07-08T07:02:25;2.97;;;1.85;;
53391;SDS011;41667;51.922;8.850;2023-07-08T07:04:50;2.40;;;2.10;;
53391;SDS011;41667;51.922;8.850;2023-07-08T07:07:15;3.97;;;1.98;;
53391;SDS011;41667;51.922;8.850;2023-07-08T07:09:40;2.60;;;2.30;;
53391;SDS011;41667;51.922;8.850;2023-07-08T07:12:06;2.22;;;2.00;;
53391;SDS011;41667;51.922;8.850;2023-07-08T07:14:31;3.05;;;2.10;;
53391;SDS011;41667;51.922;8.850;2023-07-08T07:16:57;2.22;;;2.00;;
53391;SDS011;41667;51.922;8.850;2023-07-08T07:19:22;6.80;;;1.98;;
53391;SDS011;41667;51.922;8.850;2023-07-08T07:21:47;2.53;;;2.25;;
53391;SDS011;41667;51.922;8.850;2023-07-08T07:24:12;2.65;;;2.20;;
53391;SDS011;41667;51.922;8.850;2023-07-08T07:26:37;2.50;;;2.00;;
53391;SDS011;41667;51.922;8.850;2023-07-08T07:29:03;4.18;;;2.00;;
53391;SDS011;41667;51.922;8.850;2023-07-08T07:31:28;2.90;;;2.00;;
53391;SDS011;41667;51.922;8.850;2023-07-08T07:33:53;3.38;;;2.25;;
53391;SDS011;41667;51.922;8.850;2023-07-08T07:36:18;2.38;;;2.03;;
53391;SDS011;41667;51.922;8.850;2023-07-08T07:38:43;3.07;;;2.13;;
53391;SDS011;41667;51.922;8.850;2023-07-08T07:41:08;2.35;;;2.15;;
53391;SDS011;41667;51.922;8.850;2023-07-08T07:43:35;2.35;;;2.15;;
53391;SDS011;41667;51.922;8.850;2023-07-08T07:46:00;3.08;;;2.00;;
53391;SDS011;41667;51.922;8.850;2023-07-08T07:48:26;3.43;;;1.70;;
53391;SDS011;41667;51.922;8.850;2023-07-08T07:50:51;2.03;;;1.90;;
53391;SDS011;41667;51.922;8.850;2023-07-08T07:53:16;3.60;;;2.00;;
53391;SDS011;41667;51.922;8.850;2023-07-08T07:55:41;3.30;;;1.60;;
53391;SDS011;41667;51.922;8.850;2023-07-08T07:58:07;5.45;;;2.58;;
53391;SDS011;41667;51.922;8.850;2023-07-08T08:00:32;2.45;;;1.67;;
53391;SDS011;41667;51.922;8.850;2023-07-08T08:02:58;2.40;;;2.20;;
53391;SDS011;41667;51.922;8.850;2023-07-08T08:05:23;1.83;;;1.70;;
53391;SDS011;41667;51.922;8.850;2023-07-08T08:07:48;2.20;;;2.00;;
53391;SDS011;41667;51.922;8.850;2023-07-08T08:10:13;1.80;;;1.70;;
53391;SDS011;41667;51.922;8.850;2023-07-08T08:12:38;3.10;;;2.17;;
53391;SDS011;41667;51.922;8.850;2023-07-08T08:15:04;2.53;;;2.22;;
53391;SDS011;41667;51.922;8.850;2023-07-08T08:17:29;2.60;;;2.08;;
53391;SDS011;41667;51.922;8.850;2023-07-08T08:19:54;3.60;;;2.28;;
53391;SDS011;41667;51.922;8.850;2023-07-08T08:22:19;4.38;;;1.80;;
53391;SDS011;41667;51.922;8.850;2023-07-08T08:24:46;2.20;;;1.98;;
53391;SDS011;41667;51.922;8.850;2023-07-08T08:27:11;5.35;;;2.55;;
53391;SDS011;41667;51.922;8.850;2023-07-08T08:29:36;5.53;;;2.00;;
53391;SDS011;41667;51.922;8.850;2023-07-08T08:32:01;2.78;;;2.17;;
53391;SDS011;41667;51.922;8.850;2023-07-08T08:34:26;4.27;;;2.20;;
53391;SDS011;41667;51.922;8.850;2023-07-08T08:36:53;2.45;;;1.83;;
53391;SDS011;41667;51.922;8.850;2023-07-08T08:39:20;3.38;;;2.00;;
53391;SDS011;41667;51.922;8.850;2023-07-08T08:41:47;3.20;;;2.20;;
53391;SDS011;41667;51.922;8.850;2023-07-08T08:44:15;2.58;;;2.17;;
53391;SDS011;41667;51.922;8.850;2023-07-08T08:46:44;3.33;;;2.00;;
53391;SDS011;41667;51.922;8.850;2023-07-08T08:49:27;3.88;;;2.58;;
53391;SDS011;41667;51.922;8.850;2023-07-08T08:51:55;6.45;;;2.30;;
53391;SDS011;41667;51.922;8.850;2023-07-08T08:54:20;4.57;;;2.60;;
53391;SDS011;41667;51.922;8.850;2023-07-08T08:59:17;6.13;;;2.20;;
53391;SDS011;41667;51.922;8.850;2023-07-08T09:01:46;2.88;;;2.10;;
53391;SDS011;41667;51.922;8.850;2023-07-08T09:04:14;2.63;;;1.88;;
53391;SDS011;41667;51.922;8.850;2023-07-08T09:06:41;2.70;;;2.50;;
53391;SDS011;41667;51.922;8.850;2023-07-08T09:09:11;5.57;;;2.20;;
53391;SDS011;41667;51.922;8.850;2023-07-08T09:11:51;5.88;;;2.03;;
53391;SDS011;41667;51.922;8.850;2023-07-08T09:14:28;2.13;;;1.92;;
53391;SDS011;41667;51.922;8.850;2023-07-08T09:16:57;2.17;;;1.90;;
53391;SDS011;41667;51.922;8.850;2023-07-08T09:19:29;5.60;;;2.58;;
53391;SDS011;41667;51.922;8.850;2023-07-08T09:24:22;2.33;;;2.13;;
53391;SDS011;41667;51.922;8.850;2023-07-08T09:26:49;2.25;;;2.05;;
53391;SDS011;41667;51.922;8.850;2023-07-08T09:29:17;2.25;;;2.05;;
53391;SDS011;41667;51.922;8.850;2023-07-08T09:31:42;2.47;;;1.92;;
53391;SDS011;41667;51.922;8.850;2023-07-08T09:34:12;4.90;;;2.03;;
53391;SDS011;41667;51.922;8.850;2023-07-08T09:36:39;2.25;;;1.88;;
53391;SDS011;41667;51.922;8.850;2023-07-08T09:39:05;4.15;;;3.20;;
53391;SDS011;41667;51.922;8.850;2023-07-08T09:41:34;4.47;;;2.40;;
53391;SDS011;41667;51.922;8.850;2023-07-08T09:44:04;5.35;;;2.63;;
53391;SDS011;41667;51.922;8.850;2023-07-08T09:46:30;7.22;;;2.08;;
53391;SDS011;41667;51.922;8.850;2023-07-08T09:48:59;3.42;;;2.13;;
53391;SDS011;41667;51.922;8.850;2023-07-08T09:51:33;4.47;;;2.35;;
53391;SDS011;41667;51.922;8.850;2023-07-08T09:53:58;3.28;;;2.15;;
53391;SDS011;41667;51.922;8.850;2023-07-08T09:56:24;4.13;;;2.10;;
53391;SDS011;41667;51.922;8.850;2023-07-08T09:58:52;3.60;;;2.05;;
53391;SDS011;41667;51.922;8.850;2023-07-08T10:01:24;5.87;;;2.10;;
53391;SDS011;41667;51.922;8.850;2023-07-08T10:03:50;3.05;;;2.15;;
53391;SDS011;41667;51.922;8.850;2023-07-08T10:06:24;2.23;;;1.90;;
53391;SDS011;41667;51.922;8.850;2023-07-08T10:08:49;3.22;;;2.40;;
53391;SDS011;41667;51.922;8.850;2023-07-08T10:11:28;3.13;;;1.95;;
53391;SDS011;41667;51.922;8.850;2023-07-08T10:13:55;5.30;;;2.38;;
53391;SDS011;41667;51.922;8.850;2023-07-08T10:16:29;3.70;;;2.13;;
53391;SDS011;41667;51.922;8.850;2023-07-08T10:18:55;4.68;;;2.50;;
53391;SDS011;41667;51.922;8.850;2023-07-08T10:21:23;5.85;;;2.05;;
53391;SDS011;41667;51.922;8.850;2023-07-08T10:24:24;3.22;;;1.95;;
53391;SDS011;41667;51.922;8.850;2023-07-08T10:29:24;2.70;;;1.98;;
53391;SDS011;41667;51.922;8.850;2023-07-08T10:31:53;4.22;;;2.25;;
53391;SDS011;41667;51.922;8.850;2023-07-08T10:36:59;4.88;;;2.40;;
53391;SDS011;41667;51.922;8.850;2023-07-08T10:39:41;3.63;;;2.10;;
53391;SDS011;41667;51.922;8.850;2023-07-08T10:42:23;5.00;;;2.25;;
53391;SDS011;41667;51.922;8.850;2023-07-08T10:47:32;3.83;;;2.22;;
53391;SDS011;41667;51.922;8.850;2023-07-08T10:50:18;8.20;;;2.88;;
53391;SDS011;41667;51.922;8.850;2023-07-08T10:52:56;3.25;;;1.90;;
53391;SDS011;41667;51.922;8.850;2023-07-08T10:55:29;3.05;;;2.22;;
53391;SDS011;41667;51.922;8.850;2023-07-08T10:58:00;2.30;;;2.10;;
53391;SDS011;41667;51.922;8.850;2023-07-08T11:00:38;3.70;;;3.15;;
53391;SDS011;41667;51.922;8.850;2023-07-08T11:03:14;2.63;;;2.03;;
53391;SDS011;41667;51.922;8.850;2023-07-08T11:05:44;2.38;;;1.85;;
53391;SDS011;41667;51.922;8.850;2023-07-08T11:10:47;6.25;;;2.08;;
53391;SDS011;41667;51.922;8.850;2023-07-08T11:13:18;3.38;;;1.98;;
53391;SDS011;41667;51.922;8.850;2023-07-08T11:16:04;3.78;;;2.25;;
53391;SDS011;41667;51.922;8.850;2023-07-08T11:18:37;3.25;;;2.17;;
53391;SDS011;41667;51.922;8.850;2023-07-08T11:21:13;3.65;;;2.35;;
53391;SDS011;41667;51.922;8.850;2023-07-08T11:23:42;2.35;;;2.00;;
53391;SDS011;41667;51.922;8.850;2023-07-08T11:26:16;2.85;;;2.08;;
53391;SDS011;41667;51.922;8.850;2023-07-08T11:28:41;2.55;;;2.10;;
53391;SDS011;41667;51.922;8.850;2023-07-08T11:31:07;4.97;;;2.55;;
53391;SDS011;41667;51.922;8.850;2023-07-08T11:33:33;5.15;;;2.25;;
53391;SDS011;41667;51.922;8.850;2023-07-08T11:35:59;2.20;;;2.00;;
53391;SDS011;41667;51.922;8.850;2023-07-08T11:38:25;2.45;;;1.92;;
53391;SDS011;41667;51.922;8.850;2023-07-08T11:40:52;3.22;;;2.22;;
53391;SDS011;41667;51.922;8.850;2023-07-08T11:43:17;3.13;;;2.30;;
53391;SDS011;41667;51.922;8.850;2023-07-08T11:45:44;3.50;;;2.17;;
53391;SDS011;41667;51.922;8.850;2023-07-08T11:48:12;3.97;;;2.65;;
53391;SDS011;41667;51.922;8.850;2023-07-08T11:50:39;2.97;;;2.38;;
53391;SDS011;41667;51.922;8.850;2023-07-08T11:53:09;3.17;;;2.40;;
53391;SDS011;41667;51.922;8.850;2023-07-08T11:55:36;2.53;;;2.28;;
53391;SDS011;41667;51.922;8.850;2023-07-08T11:58:02;3.47;;;2.53;;
53391;SDS011;41667;51.922;8.850;2023-07-08T12:00:31;3.45;;;2.55;;
53391;SDS011;41667;51.922;8.850;2023-07-08T12:03:03;2.42;;;2.20;;
53391;SDS011;41667;51.922;8.850;2023-07-08T12:05:35;3.90;;;2.33;;
53391;SDS011;41667;51.922;8.850;2023-07-08T12:08:02;5.63;;;2.50;;
53391;SDS011;41667;51.922;8.850;2023-07-08T12:12:53;2.10;;;1.83;;
53391;SDS011;41667;51.922;8.850;2023-07-08T12:15:22;4.23;;;2.00;;
53391;SDS011;41667;51.922;8.850;2023-07-08T12:17:49;4.82;;;2.30;;
53391;SDS011;41667;51.922;8.850;2023-07-08T12:20:17;3.70;;;2.72;;
53391;SDS011;41667;51.922;8.850;2023-07-08T12:22:42;8.27;;;3.90;;
53391;SDS011;41667;51.922;8.850;2023-07-08T12:25:14;3.00;;;2.60;;
53391;SDS011;41667;51.922;8.850;2023-07-08T12:27:41;3.85;;;2.67;;
53391;SDS011;41667;51.922;8.850;2023-07-08T12:30:07;4.30;;;2.83;;
53391;SDS011;41667;51.922;8.850;2023-07-08T12:32:33;3.00;;;2.80;;
53391;SDS011;41667;51.922;8.850;2023-07-08T12:34:59;2.85;;;2.50;;
53391;SDS011;41667;51.922;8.850;2023-07-08T12:37:24;3.00;;;2.70;;
53391;SDS011;41667;51.922;8.850;2023-07-08T12:39:55;4.28;;;3.33;;
53391;SDS011;41667;51.922;8.850;2023-07-08T12:42:21;2.55;;;2.33;;
53391;SDS011;41667;51.922;8.850;2023-07-08T12:44:47;4.43;;;2.37;;
53391;SDS011;41667;51.922;8.850;2023-07-08T12:47:13;3.40;;;2.25;;
53391;SDS011;41667;51.922;8.850;2023-07-08T12:49:38;3.87;;;2.33;;
53391;SDS011;41667;51.922;8.850;2023-07-08T12:52:05;4.97;;;2.87;;
53391;SDS011;41667;51.922;8.850;2023-07-08T12:54:30;3.42;;;2.38;;
53391;SDS011;41667;51.922;8.850;2023-07-08T12:56:56;2.28;;;2.08;;
53391;SDS011;41667;51.922;8.850;2023-07-08T12:59:21;4.10;;;2.97;;
53391;SDS011;41667;51.922;8.850;2023-07-08T13:01:48;3.00;;;2.70;;
53391;SDS011;41667;51.922;8.850;2023-07-08T13:04:14;3.17;;;2.42;;
53391;SDS011;41667;51.922;8.850;2023-07-08T13:06:39;2.72;;;2.50;;
53391;SDS011;41667;51.922;8.850;2023-07-08T13:09:11;3.42;;;2.55;;
53391;SDS011;41667;51.922;8.850;2023-07-08T13:11:44;3.50;;;3.08;;
53391;SDS011;41667;51.922;8.850;2023-07-08T13:14:11;3.50;;;2.72;;
53391;SDS011;41667;51.922;8.850;2023-07-08T13:16:37;3.60;;;2.70;;
53391;SDS011;41667;51.922;8.850;2023-07-08T13:19:02;4.07;;;2.55;;
53391;SDS011;41667;51.922;8.850;2023-07-08T13:21:28;3.25;;;2.85;;
53391;SDS011;41667;51.922;8.850;2023-07-08T13:23:55;6.60;;;2.63;;
53391;SDS011;41667;51.922;8.850;2023-07-08T13:26:21;3.53;;;2.28;;
53391;SDS011;41667;51.922;8.850;2023-07-08T13:28:47;3.03;;;2.42;;
53391;SDS011;41667;51.922;8.850;2023-07-08T13:34:05;3.42;;;2.83;;
53391;SDS011;41667;51.922;8.850;2023-07-08T13:36:32;3.38;;;2.60;;
53391;SDS011;41667;51.922;8.850;2023-07-08T13:38:58;2.72;;;2.28;;
53391;SDS011;41667;51.922;8.850;2023-07-08T13:41:24;3.58;;;2.72;;
53391;SDS011;41667;51.922;8.850;2023-07-08T13:43:49;3.23;;;2.70;;
53391;SDS011;41667;51.922;8.850;2023-07-08T13:46:33;3.65;;;2.85;;
53391;SDS011;41667;51.922;8.850;2023-07-08T13:49:00;3.17;;;2.70;;
53391;SDS011;41667;51.922;8.850;2023-07-08T13:51:28;2.97;;;2.60;;
53391;SDS011;41667;51.922;8.850;2023-07-08T13:53:57;2.95;;;2.60;;
53391;SDS011;41667;51.922;8.850;2023-07-08T13:56:33;4.60;;;2.72;;
53391;SDS011;41667;51.922;8.850;2023-07-08T13:59:01;3.50;;;2.45;;
53391;SDS011;41667;51.922;8.850;2023-07-08T14:01:26;2.78;;;2.55;;
53391;SDS011;41667;51.922;8.850;2023-07-08T14:03:52;3.75;;;2.58;;
53391;SDS011;41667;51.922;8.850;2023-07-08T14:06:20;2.70;;;2.50;;
53391;SDS011;41667;51.922;8.850;2023-07-08T14:08:45;2.85;;;2.65;;
53391;SDS011;41667;51.922;8.850;2023-07-08T14:11:10;3.40;;;2.53;;
53391;SDS011;41667;51.922;8.850;2023-07-08T14:13:35;4.53;;;2.63;;
53391;SDS011;41667;51.922;8.850;2023-07-08T14:16:01;2.77;;;2.50;;
53391;SDS011;41667;51.922;8.850;2023-07-08T14:18:28;4.25;;;2.67;;
53391;SDS011;41667;51.922;8.850;2023-07-08T14:20:53;4.25;;;2.63;;
53391;SDS011;41667;51.922;8.850;2023-07-08T14:23:18;2.67;;;2.27;;
53391;SDS011;41667;51.922;8.850;2023-07-08T14:25:44;2.90;;;2.20;;
53391;SDS011;41667;51.922;8.850;2023-07-08T14:28:09;4.10;;;2.60;;
53391;SDS011;41667;51.922;8.850;2023-07-08T14:30:35;3.42;;;2.75;;
53391;SDS011;41667;51.922;8.850;2023-07-08T14:33:04;3.08;;;2.72;;
53391;SDS011;41667;51.922;8.850;2023-07-08T14:35:30;3.35;;;2.97;;
53391;SDS011;41667;51.922;8.850;2023-07-08T14:37:56;5.33;;;2.50;;
53391;SDS011;41667;51.922;8.850;2023-07-08T14:40:26;3.35;;;2.70;;
53391;SDS011;41667;51.922;8.850;2023-07-08T14:42:56;10.27;;;3.22;;
53391;SDS011;41667;51.922;8.850;2023-07-08T14:45:23;3.42;;;2.35;;
53391;SDS011;41667;51.922;8.850;2023-07-08T14:47:48;3.20;;;2.17;;
53391;SDS011;41667;51.922;8.850;2023-07-08T14:50:14;2.60;;;2.40;;
53391;SDS011;41667;51.922;8.850;2023-07-08T14:52:39;4.97;;;2.78;;
53391;SDS011;41667;51.922;8.850;2023-07-08T14:55:04;3.33;;;2.60;;
53391;SDS011;41667;51.922;8.850;2023-07-08T14:57:30;4.28;;;2.85;;
53391;SDS011;41667;51.922;8.850;2023-07-08T14:59:57;3.83;;;2.78;;
53391;SDS011;41667;51.922;8.850;2023-07-08T15:02:22;2.90;;;2.63;;
53391;SDS011;41667;51.922;8.850;2023-07-08T15:04:47;4.40;;;3.25;;
53391;SDS011;41667;51.922;8.850;2023-07-08T15:07:13;2.92;;;2.65;;
53391;SDS011;41667;51.922;8.850;2023-07-08T15:09:38;3.50;;;2.37;;
53391;SDS011;41667;51.922;8.850;2023-07-08T15:12:03;2.90;;;2.58;;
53391;SDS011;41667;51.922;8.850;2023-07-08T15:14:29;2.65;;;2.40;;